createdAt,value
2022-11-29T00:01:00.283Z,6.20
2022-11-29T00:03:28.343Z,6.20
2022-11-29T00:05:58.824Z,6.20
2022-11-29T00:08:26.543Z,6.20
2022-11-29T00:10:54.190Z,6.00
2022-11-29T00:13:21.845Z,6.10
2022-11-29T00:15:49.556Z,6.00
2022-11-29T00:18:17.290Z,6.10
2022-11-29T00:20:47.409Z,6.10
2022-11-29T00:23:16.458Z,6.30
2022-11-29T00:25:44.099Z,6.30
2022-11-29T00:28:11.799Z,6.30
2022-11-29T00:30:39.563Z,6.30
2022-11-29T00:33:07.392Z,6.20
2022-11-29T00:35:35.098Z,6.20
2022-11-29T00:38:02.780Z,6.10
2022-11-29T00:40:31.830Z,6.10
2022-11-29T00:42:59.567Z,6.00
2022-11-29T00:45:27.229Z,6.10
2022-11-29T00:47:54.893Z,6.10
2022-11-29T00:50:22.545Z,6.00
2022-11-29T00:52:50.579Z,6.00
2022-11-29T00:55:18.455Z,6.10
2022-11-29T00:57:47.500Z,6.10
2022-11-29T01:00:16.090Z,6.20
2022-11-29T01:02:43.811Z,6.20
2022-11-29T01:05:11.487Z,6.00
2022-11-29T01:07:39.287Z,5.90
2022-11-29T01:10:07.815Z,6.00
2022-11-29T01:12:36.947Z,6.00
2022-11-29T01:15:06.760Z,6.00
2022-11-29T01:17:35.669Z,6.10
2022-11-29T01:20:04.071Z,6.00
2022-11-29T01:22:31.809Z,6.00
2022-11-29T01:24:59.532Z,5.90
2022-11-29T01:27:27.408Z,6.00
2022-11-29T01:29:55.125Z,6.10
2022-11-29T01:32:24.268Z,5.90
2022-11-29T01:34:51.947Z,5.90
2022-11-29T01:37:21.589Z,6.10
2022-11-29T01:39:49.280Z,6.10
2022-11-29T01:42:17.072Z,6.00
2022-11-29T01:45:05.610Z,6.20
2022-11-29T01:47:34.856Z,6.00
2022-11-29T01:50:03.388Z,5.90
2022-11-29T01:52:32.695Z,6.10
2022-11-29T01:55:02.634Z,6.00
2022-11-29T01:57:31.232Z,6.00
2022-11-29T02:00:01.767Z,6.10
2022-11-29T02:02:31.847Z,6.00
2022-11-29T02:05:01.332Z,5.90
2022-11-29T02:07:29.120Z,6.00
2022-11-29T02:09:56.855Z,5.80
2022-11-29T02:12:29.950Z,5.80
2022-11-29T02:15:06.311Z,5.90
2022-11-29T02:17:36.937Z,5.90
2022-11-29T02:20:23.391Z,6.00
2022-11-29T02:22:53.450Z,6.00
2022-11-29T02:25:27.856Z,6.00
2022-11-29T02:28:24.352Z,6.00
2022-11-29T02:30:59.748Z,5.90
2022-11-29T02:33:39.709Z,6.00
2022-11-29T02:36:12.734Z,6.00
2022-11-29T02:38:48.129Z,5.90
2022-11-29T02:41:28.614Z,5.90
2022-11-29T02:44:08.827Z,5.80
2022-11-29T02:46:47.133Z,5.80
2022-11-29T02:49:22.362Z,5.90
2022-11-29T02:51:53.371Z,5.90
2022-11-29T02:54:24.980Z,5.90
2022-11-29T02:56:55.176Z,5.90
2022-11-29T02:59:31.614Z,5.80
2022-11-29T03:02:04.043Z,5.90
2022-11-29T03:04:35.546Z,5.90
2022-11-29T03:07:06.303Z,5.90
2022-11-29T03:09:37.836Z,6.00
2022-11-29T03:12:11.841Z,6.00
2022-11-29T03:14:46.196Z,6.00
2022-11-29T03:17:17.677Z,6.00
2022-11-29T03:20:01.269Z,6.00
2022-11-29T03:22:35.287Z,6.00
2022-11-29T03:25:04.973Z,6.10
2022-11-29T03:27:36.711Z,5.90
2022-11-29T03:30:08.646Z,6.00
2022-11-29T03:32:39.638Z,6.00
2022-11-29T03:35:11.838Z,6.00
2022-11-29T03:37:43.604Z,6.20
2022-11-29T03:40:13.950Z,6.20
2022-11-29T03:42:44.095Z,5.90
2022-11-29T03:45:15.176Z,6.10
2022-11-29T03:47:46.109Z,6.20
2022-11-29T03:50:17.628Z,6.10
2022-11-29T03:52:48.907Z,5.90
2022-11-29T03:55:26.032Z,6.00
2022-11-29T03:58:02.560Z,6.10
2022-11-29T04:00:34.959Z,6.20
2022-11-29T04:03:17.563Z,6.20
2022-11-29T04:06:06.079Z,6.30
2022-11-29T04:08:49.284Z,6.50
2022-11-29T04:11:54.560Z,6.40
2022-11-29T04:14:40.309Z,6.40
2022-11-29T04:17:37.941Z,6.50
2022-11-29T04:20:26.134Z,6.30
2022-11-29T04:23:03.125Z,6.50
2022-11-29T04:26:01.033Z,6.40
2022-11-29T04:28:51.199Z,6.40
2022-11-29T04:31:25.209Z,6.50
2022-11-29T04:34:01.400Z,6.60
2022-11-29T04:36:43.578Z,6.30
2022-11-29T04:39:21.703Z,6.30
2022-11-29T04:42:10.013Z,6.30
2022-11-29T04:44:43.702Z,6.40
2022-11-29T04:47:26.454Z,6.50
2022-11-29T04:50:11.141Z,6.50
2022-11-29T04:52:55.889Z,6.30
2022-11-29T04:55:31.391Z,6.40
2022-11-29T04:58:01.389Z,6.40
2022-11-29T05:00:32.351Z,6.40
2022-11-29T05:03:03.014Z,6.50
2022-11-29T05:05:34.053Z,6.60
2022-11-29T05:08:13.856Z,6.70
2022-11-29T05:10:45.731Z,6.60
2022-11-29T05:13:17.256Z,6.40
2022-11-29T05:16:01.634Z,6.40
2022-11-29T05:18:42.629Z,6.40
2022-11-29T05:21:15.272Z,6.50
2022-11-29T05:23:49.601Z,6.60
2022-11-29T05:26:21.508Z,6.50
2022-11-29T05:28:55.208Z,6.30
2022-11-29T05:31:30.862Z,6.30
2022-11-29T05:34:13.449Z,6.10
2022-11-29T05:36:43.754Z,6.30
2022-11-29T05:39:24.861Z,6.20
2022-11-29T05:41:58.655Z,6.40
2022-11-29T05:44:29.498Z,6.50
2022-11-29T05:47:00.514Z,6.30
2022-11-29T05:49:33.544Z,6.40
2022-11-29T05:52:10.268Z,6.40
2022-11-29T05:54:41.937Z,6.30
2022-11-29T05:57:14.167Z,6.00
2022-11-29T05:59:42.617Z,6.10
2022-11-29T06:02:20.480Z,6.00
2022-11-29T06:04:58.386Z,6.00
2022-11-29T06:07:30.778Z,5.90
2022-11-29T06:10:02.020Z,5.90
2022-11-29T06:12:30.951Z,6.10
2022-11-29T06:15:13.707Z,6.00
2022-11-29T06:17:53.613Z,6.20
2022-11-29T06:20:28.428Z,6.30
2022-11-29T06:23:05.579Z,6.30
2022-11-29T06:25:47.003Z,6.40
2022-11-29T06:28:20.350Z,6.50
2022-11-29T06:30:54.065Z,6.50
2022-11-29T06:33:24.983Z,6.50
2022-11-29T06:35:58.741Z,6.60
2022-11-29T06:38:27.709Z,6.50
2022-11-29T06:41:00.228Z,6.40
2022-11-29T06:43:29.937Z,6.60
2022-11-29T06:46:00.544Z,6.60
2022-11-29T06:48:31.261Z,6.50
2022-11-29T06:51:07.664Z,6.60
2022-11-29T06:53:40.635Z,6.50
2022-11-29T06:56:11.408Z,6.20
2022-11-29T06:58:45.612Z,6.30
2022-11-29T07:01:20.371Z,6.20
2022-11-29T07:04:03.233Z,6.30
2022-11-29T07:06:32.691Z,6.40
2022-11-29T07:09:02.142Z,6.50
2022-11-29T07:11:30.234Z,6.60
2022-11-29T07:13:58.137Z,6.60
2022-11-29T07:16:28.651Z,6.60
2022-11-29T07:19:04.181Z,6.30
2022-11-29T07:21:39.655Z,6.10
2022-11-29T07:24:09.707Z,6.00
2022-11-29T07:26:43.002Z,6.30
2022-11-29T07:29:18.249Z,6.30
2022-11-29T07:31:50.763Z,6.40
2022-11-29T07:34:27.449Z,6.40
2022-11-29T07:36:57.364Z,6.40
2022-11-29T07:39:29.863Z,6.10
2022-11-29T07:42:01.154Z,6.10
2022-11-29T07:44:34.791Z,6.20
2022-11-29T07:47:02.497Z,6.20
2022-11-29T07:49:31.509Z,6.10
2022-11-29T07:51:59.215Z,6.10
2022-11-29T07:54:27.389Z,6.00
2022-11-29T07:56:55.104Z,6.20
2022-11-29T07:59:22.794Z,6.20
2022-11-29T08:01:50.561Z,6.10
2022-11-29T08:04:18.373Z,6.30
2022-11-29T08:06:47.393Z,6.50
2022-11-29T08:09:15.203Z,6.30
2022-11-29T08:11:42.888Z,6.20
2022-11-29T08:14:10.627Z,6.40
2022-11-29T08:16:38.573Z,6.30
2022-11-29T08:19:06.402Z,6.20
2022-11-29T08:21:34.333Z,6.30
2022-11-29T08:24:03.574Z,6.40
2022-11-29T08:26:32.005Z,6.50
2022-11-29T08:29:00.124Z,6.30
2022-11-29T08:31:27.923Z,6.40
2022-11-29T08:33:55.786Z,6.30
2022-11-29T08:36:23.430Z,6.20
2022-11-29T08:38:57.188Z,6.30
2022-11-29T08:41:30.709Z,6.20
2022-11-29T08:43:58.556Z,6.20
2022-11-29T08:46:46.739Z,6.20
2022-11-29T08:49:14.428Z,6.20
2022-11-29T08:51:42.149Z,6.20
2022-11-29T08:54:08.975Z,6.10
2022-11-29T08:59:26.072Z,6.40
2022-11-29T09:01:53.810Z,6.60
2022-11-29T09:04:21.536Z,6.60
2022-11-29T09:06:50.321Z,6.50
2022-11-29T09:09:18.182Z,6.60
2022-11-29T09:11:49.614Z,6.40
2022-11-29T09:14:18.209Z,6.60
2022-11-29T09:16:47.831Z,6.40
2022-11-29T09:19:15.575Z,6.50
2022-11-29T09:21:43.288Z,6.60
2022-11-29T09:24:11.921Z,6.70
2022-11-29T09:26:40.708Z,6.70
2022-11-29T09:29:10.116Z,6.70
2022-11-29T09:31:37.931Z,6.80
2022-11-29T09:34:05.660Z,6.80
2022-11-29T09:36:33.410Z,6.50
2022-11-29T09:39:03.187Z,6.50
2022-11-29T09:41:44.251Z,6.70
2022-11-29T09:44:19.648Z,6.70
2022-11-29T09:46:55.759Z,6.80
2022-11-29T09:49:44.188Z,6.70
2022-11-29T09:52:16.405Z,6.70
2022-11-29T09:54:49.144Z,6.60
2022-11-29T09:57:17.647Z,6.40
2022-11-29T09:59:48.145Z,6.40
2022-11-29T10:02:21.372Z,6.40
2022-11-29T10:04:51.657Z,6.50
2022-11-29T10:07:21.625Z,6.50
2022-11-29T10:09:51.335Z,6.40
2022-11-29T10:12:20.879Z,6.60
2022-11-29T10:14:57.506Z,6.70
2022-11-29T10:17:29.400Z,6.70
2022-11-29T10:19:59.464Z,6.50
2022-11-29T10:22:32.606Z,6.40
2022-11-29T10:25:02.460Z,6.50
2022-11-29T10:27:30.769Z,6.50
2022-11-29T10:30:02.463Z,6.50
2022-11-29T10:32:31.996Z,6.40
2022-11-29T10:35:00.891Z,6.30
2022-11-29T10:37:32.714Z,6.30
2022-11-29T10:40:04.251Z,6.40
2022-11-29T10:42:53.062Z,6.40
2022-11-29T10:45:27.523Z,6.40
2022-11-29T10:47:56.152Z,6.50
2022-11-29T10:50:25.849Z,6.50
2022-11-29T10:52:58.651Z,6.50
2022-11-29T10:55:32.261Z,6.30
2022-11-29T10:58:14.615Z,6.30
2022-11-29T11:00:54.199Z,6.30
2022-11-29T11:03:27.645Z,6.40
2022-11-29T11:06:03.560Z,6.40
2022-11-29T11:08:32.306Z,6.40
2022-11-29T11:11:02.089Z,6.40
2022-11-29T11:13:30.839Z,6.40
2022-11-29T11:16:07.840Z,6.50
2022-11-29T11:18:35.712Z,6.30
2022-11-29T11:21:03.754Z,6.30
2022-11-29T11:23:32.672Z,6.40
2022-11-29T11:26:01.684Z,6.50
2022-11-29T11:28:31.191Z,6.50
2022-11-29T11:31:02.607Z,6.70
2022-11-29T11:33:31.224Z,6.90
2022-11-29T11:36:09.825Z,6.80
2022-11-29T11:38:38.782Z,6.80
2022-11-29T11:41:13.545Z,6.80
2022-11-29T11:43:41.790Z,6.80
2022-11-29T11:46:13.953Z,6.70
2022-11-29T11:48:46.678Z,6.60
2022-11-29T11:51:21.173Z,6.50
2022-11-29T11:53:50.900Z,6.60
2022-11-29T11:56:19.322Z,6.80
2022-11-29T11:58:49.850Z,6.80
2022-11-29T12:01:25.126Z,6.80
2022-11-29T12:03:55.725Z,7.00
2022-11-29T12:06:32.356Z,7.20
2022-11-29T12:09:03.359Z,7.00
2022-11-29T12:11:34.972Z,7.10
2022-11-29T12:14:03.428Z,7.00
2022-11-29T12:16:35.181Z,7.00
2022-11-29T12:19:06.038Z,6.90
2022-11-29T12:21:35.651Z,6.90
2022-11-29T12:24:06.265Z,7.00
2022-11-29T12:26:56.475Z,7.00
2022-11-29T12:29:23.335Z,7.00
2022-11-29T12:32:01.095Z,6.80
2022-11-29T12:34:43.260Z,6.80
2022-11-29T12:37:15.497Z,6.90
2022-11-29T12:39:49.800Z,6.70
2022-11-29T12:42:22.455Z,6.80
2022-11-29T12:44:57.010Z,7.00
2022-11-29T12:47:37.513Z,7.10
2022-11-29T12:50:13.196Z,7.00
2022-11-29T12:52:46.537Z,7.00
2022-11-29T12:55:19.389Z,7.00
2022-11-29T12:57:52.399Z,7.20
2022-11-29T13:00:20.788Z,7.00
2022-11-29T13:02:54.555Z,7.20
2022-11-29T13:05:27.280Z,7.00
2022-11-29T13:08:17.514Z,7.00
2022-11-29T13:10:54.853Z,7.10
2022-11-29T13:13:27.244Z,7.10
2022-11-29T13:15:58.942Z,7.20
2022-11-29T13:18:32.097Z,7.10
2022-11-29T13:21:02.404Z,7.10
2022-11-29T13:23:45.788Z,7.20
2022-11-29T13:26:21.990Z,7.20
2022-11-29T13:28:50.031Z,7.00
2022-11-29T13:31:19.348Z,6.90
2022-11-29T13:33:54.425Z,6.90
2022-11-29T13:36:24.338Z,6.80
2022-11-29T13:38:56.860Z,6.70
2022-11-29T13:41:29.808Z,6.70
2022-11-29T13:44:00.030Z,6.80
2022-11-29T13:46:31.363Z,6.90
2022-11-29T13:49:00.434Z,7.00
2022-11-29T13:51:30.108Z,7.00
2022-11-29T13:53:58.711Z,7.10
2022-11-29T13:56:29.641Z,7.00
2022-11-29T13:58:59.353Z,7.20
2022-11-29T14:01:27.570Z,7.10
2022-11-29T14:04:07.328Z,7.10
2022-11-29T14:06:36.352Z,7.10
2022-11-29T14:09:24.690Z,7.20
2022-11-29T14:11:56.192Z,7.30
2022-11-29T14:14:26.918Z,7.10
2022-11-29T14:16:56.569Z,7.10
2022-11-29T14:19:32.839Z,7.00
2022-11-29T14:22:25.237Z,7.30
2022-11-29T14:24:57.167Z,7.10
2022-11-29T14:27:43.750Z,7.20
2022-11-29T14:30:26.352Z,7.30
2022-11-29T14:32:57.930Z,7.10
2022-11-29T14:35:31.667Z,7.00
2022-11-29T14:38:05.282Z,7.00
2022-11-29T14:40:37.912Z,6.90
2022-11-29T14:43:16.246Z,6.80
2022-11-29T14:45:44.158Z,6.90
2022-11-29T14:48:25.021Z,6.80
2022-11-29T14:51:07.667Z,6.80
2022-11-29T14:53:36.653Z,6.70
2022-11-29T14:56:23.626Z,6.60
2022-11-29T14:59:12.863Z,6.70
2022-11-29T15:01:43.654Z,6.60
2022-11-29T15:04:12.385Z,6.80
2022-11-29T15:06:47.431Z,7.00
2022-11-29T15:09:21.139Z,7.10
2022-11-29T15:11:53.265Z,7.10
2022-11-29T15:14:25.126Z,6.90
2022-11-29T15:16:57.856Z,6.90
2022-11-29T15:19:36.776Z,7.10
2022-11-29T15:22:09.746Z,7.10
2022-11-29T15:24:50.291Z,7.00
2022-11-29T15:27:18.816Z,7.00
2022-11-29T15:29:51.012Z,6.90
2022-11-29T15:32:22.629Z,7.00
2022-11-29T15:34:51.342Z,7.10
2022-11-29T15:37:24.261Z,6.80
2022-11-29T15:40:01.444Z,6.90
2022-11-29T15:42:32.674Z,6.90
2022-11-29T15:45:00.665Z,6.90
2022-11-29T15:47:28.363Z,7.00
2022-11-29T15:49:56.068Z,6.90
2022-11-29T15:52:29.098Z,6.90
2022-11-29T15:55:00.130Z,6.70
2022-11-29T15:57:30.223Z,6.60
2022-11-29T15:59:59.039Z,6.50
2022-11-29T16:02:28.100Z,6.60
2022-11-29T16:04:58.124Z,6.60
2022-11-29T16:07:29.107Z,6.70
2022-11-29T16:09:59.402Z,6.80
2022-11-29T16:12:27.402Z,6.90
2022-11-29T16:14:56.829Z,6.80
2022-11-29T16:17:26.193Z,6.90
2022-11-29T16:20:07.236Z,6.90
2022-11-29T16:22:37.113Z,6.70
2022-11-29T16:25:06.915Z,6.90
2022-11-29T16:27:36.638Z,6.80
2022-11-29T16:30:04.767Z,7.00
2022-11-29T16:32:33.955Z,7.10
2022-11-29T16:35:07.362Z,6.90
2022-11-29T16:37:39.560Z,6.90
2022-11-29T16:40:08.291Z,6.90
2022-11-29T16:42:37.090Z,7.10
2022-11-29T16:45:28.809Z,6.90
2022-11-29T16:47:59.494Z,6.80
2022-11-29T16:50:30.615Z,6.80
2022-11-29T16:53:21.026Z,7.00
2022-11-29T16:55:50.459Z,6.80
2022-11-29T16:58:18.166Z,6.90
2022-11-29T17:00:47.435Z,6.70
2022-11-29T17:03:15.170Z,6.80
2022-11-29T17:05:44.816Z,6.90
2022-11-29T17:08:15.372Z,7.10
2022-11-29T17:10:43.014Z,6.80
2022-11-29T17:13:12.562Z,6.80
2022-11-29T17:15:40.210Z,6.90
2022-11-29T17:18:07.924Z,6.70
2022-11-29T17:20:35.645Z,6.70
2022-11-29T17:23:04.779Z,6.60
2022-11-29T17:25:32.966Z,6.50
2022-11-29T17:28:01.938Z,6.70
2022-11-29T17:30:31.877Z,6.90
2022-11-29T17:33:05.285Z,7.00
2022-11-29T17:35:36.402Z,7.10
2022-11-29T17:38:04.146Z,6.80
2022-11-29T17:40:31.906Z,6.90
2022-11-29T17:42:59.639Z,7.10
2022-11-29T17:45:27.914Z,7.10
2022-11-29T17:47:56.968Z,7.20
2022-11-29T17:50:24.659Z,6.90
2022-11-29T17:52:52.385Z,6.90
2022-11-29T17:55:20.943Z,7.00
2022-11-29T17:57:49.128Z,6.90
2022-11-29T18:00:17.523Z,6.80
2022-11-29T18:02:45.214Z,6.70
2022-11-29T18:05:14.318Z,6.80
2022-11-29T18:07:57.978Z,6.80
2022-11-29T18:10:25.896Z,6.90
2022-11-29T18:12:53.660Z,6.80
2022-11-29T18:15:21.558Z,6.60
2022-11-29T18:17:49.268Z,6.80
2022-11-29T18:20:18.336Z,7.00
2022-11-29T18:22:46.005Z,6.80
2022-11-29T18:25:37.525Z,6.70
2022-11-29T18:28:02.215Z,6.70
2022-11-29T18:30:29.964Z,6.70
2022-11-29T18:32:59.472Z,6.70
2022-11-29T18:35:28.871Z,6.70
2022-11-29T18:38:14.709Z,6.70
2022-11-29T18:40:44.995Z,6.80
2022-11-29T18:43:12.948Z,6.80
2022-11-29T18:45:40.764Z,6.70
2022-11-29T18:48:08.651Z,6.70
2022-11-29T18:50:37.803Z,6.70
2022-11-29T18:53:05.541Z,6.70
2022-11-29T18:55:33.355Z,6.70
2022-11-29T18:58:01.331Z,6.60
2022-11-29T19:00:28.990Z,6.70
2022-11-29T19:02:57.232Z,6.80
2022-11-29T19:05:24.997Z,6.60
2022-11-29T19:07:54.069Z,6.60
2022-11-29T19:10:21.798Z,6.70
2022-11-29T19:12:49.506Z,6.60
2022-11-29T19:15:17.303Z,6.60
2022-11-29T19:17:44.959Z,6.70
2022-11-29T19:20:13.019Z,6.50
2022-11-29T19:22:40.778Z,6.70
2022-11-29T19:25:10.299Z,6.60
2022-11-29T19:27:37.957Z,6.80
2022-11-29T19:30:06.177Z,7.00
2022-11-29T19:32:33.855Z,6.90
2022-11-29T19:35:01.570Z,6.80
2022-11-29T19:37:29.295Z,6.80
2022-11-29T19:39:57.206Z,6.80
2022-11-29T19:42:26.232Z,6.70
2022-11-29T19:45:15.894Z,6.90
2022-11-29T19:47:43.843Z,6.70
2022-11-29T19:50:11.632Z,6.70
2022-11-29T19:52:39.362Z,6.70
2022-11-29T19:55:07.456Z,6.80
2022-11-29T19:57:37.120Z,6.60
2022-11-29T20:00:05.199Z,6.80
2022-11-29T20:02:32.989Z,6.80
2022-11-29T20:05:01.106Z,6.70
2022-11-29T20:07:29.330Z,6.80
2022-11-29T20:09:57.013Z,6.50
2022-11-29T20:12:24.732Z,6.60
2022-11-29T20:14:53.761Z,6.80
2022-11-29T20:17:22.949Z,6.70
2022-11-29T20:19:50.864Z,6.60
2022-11-29T20:22:18.797Z,6.60
2022-11-29T20:24:46.561Z,6.60
2022-11-29T20:27:14.297Z,6.70
2022-11-29T20:29:41.959Z,6.70
2022-11-29T20:32:11.029Z,6.70
2022-11-29T20:34:39.407Z,6.90
2022-11-29T20:37:25.041Z,6.80
2022-11-29T20:39:55.369Z,6.90
2022-11-29T20:42:41.421Z,6.80
2022-11-29T20:45:09.996Z,6.60
2022-11-29T20:47:45.714Z,6.60
2022-11-29T20:50:16.897Z,6.50
2022-11-29T20:52:50.093Z,6.80
2022-11-29T20:55:18.039Z,6.60
2022-11-29T20:57:45.735Z,6.70
2022-11-29T21:00:15.588Z,6.90
2022-11-29T21:02:44.675Z,7.00
2022-11-29T21:05:12.448Z,7.00
2022-11-29T21:07:40.167Z,7.10
2022-11-29T21:10:08.549Z,6.90
2022-11-29T21:12:36.492Z,7.10
2022-11-29T21:15:04.608Z,6.80
2022-11-29T21:17:33.964Z,6.90
2022-11-29T21:20:03.772Z,6.80
2022-11-29T21:22:37.730Z,6.70
2022-11-29T21:25:10.851Z,6.80
2022-11-29T21:27:38.768Z,6.90
2022-11-29T21:30:19.997Z,7.00
2022-11-29T21:32:48.250Z,7.10
2022-11-29T21:35:17.416Z,7.10
2022-11-29T21:37:45.521Z,7.00
2022-11-29T21:40:13.910Z,6.90
2022-11-29T21:42:41.634Z,7.00
2022-11-29T21:45:15.351Z,7.20
2022-11-29T21:47:43.916Z,7.10
2022-11-29T21:50:12.256Z,7.10
2022-11-29T21:52:41.471Z,7.00
2022-11-29T21:55:09.785Z,7.00
2022-11-29T21:57:38.748Z,6.80
2022-11-29T22:00:07.391Z,6.80
2022-11-29T22:02:35.201Z,6.80
2022-11-29T22:05:03.004Z,6.90
2022-11-29T22:07:30.718Z,7.00
2022-11-29T22:10:08.557Z,6.80
2022-11-29T22:12:49.366Z,7.10
2022-11-29T22:15:25.067Z,7.00
2022-11-29T22:17:53.165Z,8.40
2022-11-29T22:20:21.276Z,7.00
2022-11-29T22:22:49.004Z,7.10
2022-11-29T22:25:18.190Z,6.90
2022-11-29T22:27:45.972Z,6.90
2022-11-29T22:30:13.861Z,7.10
2022-11-29T22:32:41.540Z,6.90
2022-11-29T22:35:09.664Z,6.90
2022-11-29T22:37:37.344Z,7.00
2022-11-29T22:40:05.908Z,7.00
2022-11-29T22:42:34.901Z,7.10
2022-11-29T22:45:04.080Z,7.10
2022-11-29T22:47:31.726Z,7.10
2022-11-29T22:49:59.424Z,7.20
2022-11-29T22:52:30.637Z,7.30
2022-11-29T22:55:04.263Z,7.30
2022-11-29T22:57:32.638Z,7.30
2022-11-29T23:00:01.646Z,7.40
2022-11-29T23:02:29.441Z,7.50
2022-11-29T23:04:57.271Z,7.40
2022-11-29T23:07:25.037Z,7.30
2022-11-29T23:09:52.766Z,7.40
2022-11-29T23:12:20.711Z,7.40
2022-11-29T23:14:54.498Z,7.50
2022-11-29T23:17:25.315Z,7.40
2022-11-29T23:19:53.012Z,7.50
2022-11-29T23:22:20.749Z,7.20
2022-11-29T23:24:48.623Z,6.90
2022-11-29T23:27:16.641Z,7.00
2022-11-29T23:29:44.293Z,7.00
2022-11-29T23:32:12.004Z,7.10
2022-11-29T23:34:40.983Z,7.20
2022-11-29T23:37:08.722Z,7.30
2022-11-29T23:39:36.502Z,7.30
2022-11-29T23:42:04.313Z,7.30
2022-11-29T23:44:32.007Z,7.40
2022-11-29T23:46:59.644Z,7.40
2022-11-29T23:49:27.342Z,7.50
2022-11-29T23:51:56.373Z,7.30
2022-11-29T23:54:24.183Z,7.10
2022-11-29T23:56:51.877Z,7.30
2022-11-29T23:59:19.604Z,7.10
